createdAt,value
2023-04-11T00:01:13.968Z,1.10
2023-04-11T00:03:40.966Z,0.90
2023-04-11T00:06:07.801Z,0.93
2023-04-11T00:08:34.515Z,1.10
2023-04-11T00:11:00.887Z,1.00
2023-04-11T00:13:27.293Z,1.15
2023-04-11T00:15:55.949Z,1.30
2023-04-11T00:18:22.998Z,1.00
2023-04-11T00:20:49.464Z,1.00
2023-04-11T00:23:15.931Z,1.10
2023-04-11T00:25:42.340Z,0.77
2023-04-11T00:28:09.940Z,0.85
2023-04-11T00:30:36.447Z,1.10
2023-04-11T00:33:03.894Z,0.73
2023-04-11T00:35:34.219Z,1.65
2023-04-11T00:38:02.096Z,1.02
2023-04-11T00:40:28.530Z,1.02
2023-04-11T00:42:56.203Z,1.08
2023-04-11T00:45:23.231Z,0.85
2023-04-11T00:47:50.942Z,1.20
2023-04-11T00:50:18.752Z,0.98
2023-04-11T00:52:47.805Z,1.23
2023-04-11T00:55:14.844Z,0.98
2023-04-11T00:57:42.593Z,0.80
2023-04-11T01:00:10.639Z,0.85
2023-04-11T01:02:38.462Z,1.15
2023-04-11T01:05:05.847Z,0.98
2023-04-11T01:07:33.348Z,0.90
2023-04-11T01:10:02.621Z,1.10
2023-04-11T01:12:30.868Z,1.40
2023-04-11T01:14:57.798Z,1.10
2023-04-11T01:17:26.602Z,1.27
2023-04-11T01:19:53.866Z,0.98
2023-04-11T01:22:24.377Z,1.20
2023-04-11T01:24:51.374Z,1.17
2023-04-11T01:27:18.322Z,1.27
2023-04-11T01:29:44.695Z,0.90
2023-04-11T01:32:11.174Z,1.00
2023-04-11T01:34:41.075Z,1.02
2023-04-11T01:37:08.149Z,1.00
2023-04-11T01:39:34.886Z,1.00
2023-04-11T01:42:02.789Z,1.20
2023-04-11T01:44:31.803Z,0.90
2023-04-11T01:46:58.413Z,1.50
2023-04-11T01:49:26.121Z,0.98
2023-04-11T01:51:52.728Z,1.00
2023-04-11T01:54:19.359Z,0.82
2023-04-11T01:56:46.657Z,1.00
2023-04-11T01:59:13.138Z,1.08
2023-04-11T02:01:40.673Z,1.20
2023-04-11T02:04:07.147Z,1.75
2023-04-11T02:06:33.866Z,1.35
2023-04-11T02:09:00.354Z,1.35
2023-04-11T02:11:27.220Z,1.08
2023-04-11T02:13:53.616Z,1.27
2023-04-11T02:16:20.983Z,1.30
2023-04-11T02:18:47.437Z,0.93
2023-04-11T02:21:14.399Z,1.13
2023-04-11T02:23:40.742Z,1.33
2023-04-11T02:26:07.611Z,1.30
2023-04-11T02:28:34.160Z,1.20
2023-04-11T02:31:01.406Z,1.08
2023-04-11T02:33:27.964Z,1.20
2023-04-11T02:35:54.853Z,1.00
2023-04-11T02:38:21.432Z,1.40
2023-04-11T02:40:47.998Z,1.30
2023-04-11T02:43:15.143Z,1.40
2023-04-11T02:45:42.098Z,1.58
2023-04-11T02:48:08.485Z,1.20
2023-04-11T02:50:34.872Z,1.55
2023-04-11T02:53:01.652Z,1.30
2023-04-11T02:55:28.005Z,1.58
2023-04-11T02:57:54.421Z,1.60
2023-04-11T03:00:21.309Z,1.73
2023-04-11T03:02:49.009Z,1.65
2023-04-11T03:05:16.113Z,1.60
2023-04-11T03:07:43.789Z,1.70
2023-04-11T03:10:10.911Z,1.65
2023-04-11T03:12:37.342Z,1.58
2023-04-11T03:15:04.335Z,1.90
2023-04-11T03:17:30.737Z,2.10
2023-04-11T03:19:57.112Z,2.03
2023-04-11T03:22:24.718Z,1.95
2023-04-11T03:24:51.173Z,2.13
2023-04-11T03:27:17.765Z,1.90
2023-04-11T03:29:44.151Z,2.00
2023-04-11T03:32:10.944Z,1.80
2023-04-11T03:34:37.303Z,2.03
2023-04-11T03:37:03.787Z,2.47
2023-04-11T03:39:30.209Z,1.98
2023-04-11T03:41:57.930Z,3.05
2023-04-11T03:44:24.283Z,2.58
2023-04-11T03:46:51.157Z,2.65
2023-04-11T03:49:17.524Z,1.88
2023-04-11T03:51:44.319Z,2.25
2023-04-11T03:54:10.697Z,2.38
2023-04-11T03:56:37.413Z,2.67
2023-04-11T03:59:03.829Z,2.60
2023-04-11T04:01:32.074Z,2.28
2023-04-11T04:04:00.540Z,2.40
2023-04-11T04:06:28.587Z,2.78
2023-04-11T04:08:55.425Z,2.03
2023-04-11T04:11:21.900Z,2.20
2023-04-11T04:13:48.994Z,2.33
2023-04-11T04:16:17.512Z,2.42
2023-04-11T04:18:44.006Z,2.38
2023-04-11T04:21:10.365Z,2.35
2023-04-11T04:23:39.564Z,2.00
2023-04-11T04:26:06.869Z,2.15
2023-04-11T04:28:33.573Z,2.00
2023-04-11T04:31:02.751Z,2.08
2023-04-11T04:33:32.849Z,2.35
2023-04-11T04:36:00.427Z,3.05
2023-04-11T04:38:28.789Z,2.10
2023-04-11T04:40:56.834Z,1.98
2023-04-11T04:43:24.276Z,2.20
2023-04-11T04:45:51.010Z,2.08
2023-04-11T04:48:17.475Z,2.10
2023-04-11T04:50:45.496Z,2.08
2023-04-11T04:53:11.909Z,2.47
2023-04-11T04:55:38.362Z,1.88
2023-04-11T04:58:04.733Z,2.38
2023-04-11T05:00:31.263Z,2.42
2023-04-11T05:02:57.919Z,2.08
2023-04-11T05:05:24.579Z,2.60
2023-04-11T05:07:51.039Z,2.35
2023-04-11T05:10:17.785Z,2.50
2023-04-11T05:12:44.209Z,2.03
2023-04-11T05:15:11.741Z,2.30
2023-04-11T05:17:38.786Z,1.95
2023-04-11T05:20:07.549Z,2.05
2023-04-11T05:22:34.182Z,2.78
2023-04-11T05:25:00.988Z,2.47
2023-04-11T05:27:27.705Z,2.00
2023-04-11T05:29:54.171Z,2.33
2023-04-11T05:32:20.636Z,2.58
2023-04-11T05:34:56.550Z,2.42
2023-04-11T05:37:25.949Z,2.67
2023-04-11T05:39:52.650Z,1.98
2023-04-11T05:42:19.038Z,2.03
2023-04-11T05:44:45.499Z,2.90
2023-04-11T05:47:11.875Z,2.22
2023-04-11T05:49:38.459Z,2.75
2023-04-11T05:52:05.318Z,2.17
2023-04-11T05:54:36.272Z,2.53
2023-04-11T05:57:03.562Z,2.17
2023-04-11T05:59:33.058Z,2.00
2023-04-11T06:01:59.894Z,2.03
2023-04-11T06:04:26.776Z,2.60
2023-04-11T06:06:53.907Z,2.22
2023-04-11T06:09:20.422Z,1.80
2023-04-11T06:11:46.820Z,2.08
2023-04-11T06:14:13.642Z,2.00
2023-04-11T06:16:40.136Z,2.00
2023-04-11T06:19:06.545Z,2.08
2023-04-11T06:21:32.954Z,2.13
2023-04-11T06:24:09.808Z,2.30
2023-04-11T06:26:36.177Z,2.40
2023-04-11T06:29:06.644Z,2.10
2023-04-11T06:31:41.402Z,2.13
2023-04-11T06:34:08.179Z,2.95
2023-04-11T06:36:42.862Z,2.65
2023-04-11T06:39:09.777Z,1.83
2023-04-11T06:41:36.313Z,2.00
2023-04-11T06:44:02.714Z,2.40
2023-04-11T06:46:29.178Z,2.38
2023-04-11T06:48:56.440Z,2.92
2023-04-11T06:51:23.255Z,2.28
2023-04-11T06:53:49.937Z,2.40
2023-04-11T06:56:16.402Z,3.53
2023-04-11T06:58:43.103Z,3.55
2023-04-11T07:01:09.554Z,2.45
2023-04-11T07:03:36.861Z,2.83
2023-04-11T07:06:03.611Z,2.42
2023-04-11T07:08:30.403Z,2.80
2023-04-11T07:10:56.832Z,2.42
2023-04-11T07:13:23.245Z,2.88
2023-04-11T07:15:49.650Z,2.60
2023-04-11T07:18:16.349Z,2.22
2023-04-11T07:20:43.029Z,2.00
2023-04-11T07:23:09.482Z,2.88
2023-04-11T07:25:36.852Z,2.30
2023-04-11T07:28:07.052Z,2.15
2023-04-11T07:30:35.591Z,2.53
2023-04-11T07:33:03.034Z,3.38
2023-04-11T07:35:30.256Z,2.90
2023-04-11T07:37:58.110Z,2.88
2023-04-11T07:40:24.731Z,2.35
2023-04-11T07:42:51.092Z,3.85
2023-04-11T07:45:17.733Z,2.90
2023-04-11T07:47:44.201Z,2.40
2023-04-11T07:50:10.985Z,2.25
2023-04-11T07:52:37.487Z,2.42
2023-04-11T07:55:04.350Z,2.47
2023-04-11T07:57:30.865Z,2.75
2023-04-11T08:00:01.101Z,2.38
2023-04-11T08:02:27.689Z,2.85
2023-04-11T08:04:54.377Z,3.08
2023-04-11T08:07:20.851Z,3.00
2023-04-11T08:09:47.219Z,2.10
2023-04-11T08:12:14.064Z,2.60
2023-04-11T08:14:40.464Z,3.10
2023-04-11T08:17:17.558Z,2.58
2023-04-11T08:19:51.753Z,2.05
2023-04-11T08:22:18.455Z,2.53
2023-04-11T08:24:45.569Z,1.85
2023-04-11T08:27:12.044Z,2.30
2023-04-11T08:29:38.765Z,1.52
2023-04-11T08:32:05.303Z,2.33
2023-04-11T08:34:34.805Z,2.17
2023-04-11T08:37:01.709Z,2.22
2023-04-11T08:39:28.124Z,2.10
2023-04-11T08:41:55.984Z,2.20
2023-04-11T08:44:37.065Z,2.25
2023-04-11T08:47:05.932Z,2.03
2023-04-11T08:49:32.314Z,2.10
2023-04-11T08:51:59.869Z,1.80
2023-04-11T08:54:26.893Z,2.30
2023-04-11T08:56:53.262Z,1.95
2023-04-11T08:59:20.142Z,1.67
2023-04-11T09:01:46.694Z,2.30
2023-04-11T09:04:13.652Z,1.88
2023-04-11T09:06:42.259Z,1.98
2023-04-11T09:09:29.103Z,1.98
2023-04-11T09:11:55.528Z,2.58
2023-04-11T09:14:26.406Z,1.80
2023-04-11T09:17:00.997Z,1.73
2023-04-11T09:19:30.362Z,1.48
2023-04-11T09:22:00.430Z,1.30
2023-04-11T09:24:31.995Z,1.30
2023-04-11T09:27:17.135Z,1.60
2023-04-11T09:29:48.304Z,1.17
2023-04-11T09:32:32.033Z,1.10
2023-04-11T09:35:20.173Z,1.70
2023-04-11T09:37:49.085Z,1.30
2023-04-11T09:40:17.251Z,1.23
2023-04-11T09:42:45.023Z,1.67
2023-04-11T09:45:22.323Z,1.38
2023-04-11T09:47:51.146Z,1.52
2023-04-11T09:50:17.954Z,1.38
2023-04-11T09:52:45.949Z,1.05
2023-04-11T09:55:16.739Z,1.25
2023-04-11T09:57:48.482Z,1.63
2023-04-11T10:00:18.738Z,1.58
2023-04-11T10:02:48.695Z,1.45
2023-04-11T10:05:18.273Z,1.30
2023-04-11T10:08:07.886Z,1.30
2023-04-11T10:10:36.379Z,1.10
2023-04-11T10:13:03.502Z,1.13
2023-04-11T10:15:30.224Z,1.42
2023-04-11T10:18:13.603Z,1.17
2023-04-11T10:20:50.513Z,1.17
2023-04-11T10:23:17.175Z,1.33
2023-04-11T10:25:50.862Z,1.23
2023-04-11T10:28:35.351Z,1.38
2023-04-11T10:31:10.371Z,2.03
2023-04-11T10:33:38.419Z,1.40
2023-04-11T10:36:12.729Z,1.63
2023-04-11T10:38:47.288Z,1.60
2023-04-11T10:41:40.099Z,1.23
2023-04-11T10:44:24.612Z,1.40
2023-04-11T10:46:53.828Z,1.40
2023-04-11T10:49:40.592Z,1.38
2023-04-11T10:52:23.640Z,2.00
2023-04-11T10:54:54.755Z,1.80
2023-04-11T10:57:22.581Z,1.60
2023-04-11T10:59:52.104Z,1.40
2023-04-11T11:02:22.328Z,1.27
2023-04-11T11:04:49.352Z,0.98
2023-04-11T11:07:16.903Z,1.02
2023-04-11T11:09:49.245Z,1.38
2023-04-11T11:12:16.928Z,1.60
2023-04-11T11:14:46.064Z,1.63
2023-04-11T11:17:13.766Z,1.27
2023-04-11T11:19:47.784Z,1.30
2023-04-11T11:22:18.428Z,1.40
2023-04-11T11:24:45.347Z,1.30
2023-04-11T11:27:24.971Z,1.50
2023-04-11T11:29:52.899Z,1.27
2023-04-11T11:32:33.505Z,1.52
2023-04-11T11:35:00.165Z,2.17
2023-04-11T11:37:26.982Z,1.77
2023-04-11T11:39:54.064Z,1.27
2023-04-11T11:42:20.924Z,1.30
2023-04-11T11:44:47.821Z,1.80
2023-04-11T11:47:20.806Z,1.33
2023-04-11T11:49:47.259Z,1.85
2023-04-11T11:52:41.008Z,1.92
2023-04-11T11:55:28.624Z,1.50
2023-04-11T11:57:59.974Z,1.48
2023-04-11T12:00:28.134Z,1.60
2023-04-11T12:02:57.020Z,2.17
2023-04-11T12:05:25.204Z,1.85
2023-04-11T12:07:55.638Z,1.30
2023-04-11T12:10:22.023Z,1.38
2023-04-11T12:12:53.222Z,1.17
2023-04-11T12:15:22.740Z,1.23
2023-04-11T12:17:51.877Z,1.30
2023-04-11T12:20:25.052Z,1.10
2023-04-11T12:22:53.669Z,1.35
2023-04-11T12:25:22.525Z,1.50
2023-04-11T12:27:49.315Z,1.10
2023-04-11T12:30:15.906Z,1.40
2023-04-11T12:32:43.753Z,0.98
2023-04-11T12:35:11.183Z,1.65
2023-04-11T12:37:38.153Z,1.20
2023-04-11T12:40:12.628Z,1.00
2023-04-11T12:42:53.232Z,1.15
2023-04-11T12:45:25.316Z,1.30
2023-04-11T12:47:52.300Z,1.60
2023-04-11T12:50:19.289Z,1.60
2023-04-11T12:52:45.835Z,1.42
2023-04-11T12:55:13.126Z,1.25
2023-04-11T12:57:39.727Z,1.40
2023-04-11T13:00:07.101Z,1.00
2023-04-11T13:02:42.060Z,1.48
2023-04-11T13:05:11.335Z,1.25
2023-04-11T13:07:37.846Z,1.27
2023-04-11T13:10:07.778Z,1.35
2023-04-11T13:12:39.582Z,1.13
2023-04-11T13:15:07.351Z,1.17
2023-04-11T13:17:33.856Z,1.00
2023-04-11T13:20:00.344Z,1.00
2023-04-11T13:22:27.407Z,1.30
2023-04-11T13:24:53.769Z,1.25
2023-04-11T13:27:20.158Z,1.10
2023-04-11T13:29:46.845Z,1.00
2023-04-11T13:32:13.752Z,1.48
2023-04-11T13:34:40.674Z,1.17
2023-04-11T13:37:07.582Z,1.30
2023-04-11T13:39:34.051Z,1.48
2023-04-11T13:42:01.138Z,1.15
2023-04-11T13:44:27.536Z,1.17
2023-04-11T13:46:54.565Z,1.00
2023-04-11T13:49:21.045Z,1.63
2023-04-11T13:51:47.497Z,0.90
2023-04-11T13:54:13.950Z,1.10
2023-04-11T13:56:41.065Z,1.20
2023-04-11T13:59:07.475Z,1.20
2023-04-11T14:01:34.285Z,1.30
2023-04-11T14:04:01.627Z,1.42
2023-04-11T14:06:28.305Z,1.05
2023-04-11T14:08:54.761Z,1.40
2023-04-11T14:11:21.564Z,1.13
2023-04-11T14:13:48.420Z,0.95
2023-04-11T14:16:15.120Z,1.33
2023-04-11T14:18:41.802Z,1.00
2023-04-11T14:21:08.526Z,1.30
2023-04-11T14:23:34.971Z,1.52
2023-04-11T14:26:01.952Z,1.17
2023-04-11T14:28:29.063Z,1.73
2023-04-11T14:30:56.845Z,1.33
2023-04-11T14:33:23.683Z,1.38
2023-04-11T14:35:50.803Z,1.10
2023-04-11T14:38:17.205Z,1.20
2023-04-11T14:40:44.210Z,1.20
2023-04-11T14:43:11.324Z,1.20
2023-04-11T14:45:37.958Z,1.20
2023-04-11T14:48:14.485Z,1.20
2023-04-11T14:50:41.366Z,0.90
2023-04-11T14:53:07.782Z,0.98
2023-04-11T14:55:47.223Z,1.20
2023-04-11T14:58:13.686Z,1.63
2023-04-11T15:00:40.896Z,1.20
2023-04-11T15:03:07.480Z,1.63
2023-04-11T15:05:33.932Z,1.40
2023-04-11T15:08:00.804Z,1.10
2023-04-11T15:10:27.276Z,1.17
2023-04-11T15:12:53.861Z,1.13
2023-04-11T15:15:20.390Z,1.48
2023-04-11T15:17:49.374Z,1.27
2023-04-11T15:20:16.785Z,1.27
2023-04-11T15:22:45.203Z,0.95
2023-04-11T15:25:13.915Z,1.55
2023-04-11T15:27:40.867Z,0.90
2023-04-11T15:30:08.049Z,1.00
2023-04-11T15:32:34.805Z,1.35
2023-04-11T15:35:01.796Z,1.25
2023-04-11T15:37:28.691Z,1.20
2023-04-11T15:39:55.447Z,1.02
2023-04-11T15:42:21.848Z,1.30
2023-04-11T15:44:48.584Z,1.30
2023-04-11T15:47:16.426Z,0.90
2023-04-11T15:49:43.432Z,1.67
2023-04-11T15:52:09.870Z,1.17
2023-04-11T15:54:36.727Z,1.33
2023-04-11T15:57:04.035Z,1.20
2023-04-11T15:59:30.740Z,1.05
2023-04-11T16:01:57.771Z,1.17
2023-04-11T16:04:25.313Z,1.23
2023-04-11T16:06:52.556Z,1.42
2023-04-11T16:09:19.113Z,1.20
2023-04-11T16:11:45.668Z,1.40
2023-04-11T16:14:12.118Z,1.10
2023-04-11T16:16:38.658Z,1.30
2023-04-11T16:19:06.076Z,1.55
2023-04-11T16:21:32.890Z,1.42
2023-04-11T16:23:59.498Z,1.80
2023-04-11T16:26:29.470Z,1.30
2023-04-11T16:28:56.019Z,1.10
2023-04-11T16:31:24.865Z,1.17
2023-04-11T16:33:53.301Z,1.30
2023-04-11T16:36:20.508Z,1.70
2023-04-11T16:38:47.657Z,1.10
2023-04-11T16:41:16.405Z,1.27
2023-04-11T16:43:43.207Z,1.00
2023-04-11T16:46:14.694Z,1.10
2023-04-11T16:48:43.162Z,1.05
2023-04-11T16:51:13.516Z,1.80
2023-04-11T16:53:40.559Z,1.20
2023-04-11T16:56:07.340Z,1.23
2023-04-11T16:58:34.033Z,1.73
2023-04-11T17:01:01.732Z,1.05
2023-04-11T17:03:28.967Z,1.10
2023-04-11T17:05:55.810Z,1.08
2023-04-11T17:08:22.306Z,1.02
2023-04-11T17:10:48.721Z,1.35
2023-04-11T17:13:15.922Z,1.25
2023-04-11T17:15:42.410Z,1.10
2023-04-11T17:18:08.912Z,1.17
2023-04-11T17:20:36.619Z,0.93
2023-04-11T17:23:03.375Z,1.00
2023-04-11T17:25:30.089Z,1.10
2023-04-11T17:27:57.381Z,1.27
2023-04-11T17:30:23.811Z,1.25
2023-04-11T17:32:50.610Z,7.95
2023-04-11T17:35:17.044Z,3.22
2023-04-11T17:37:43.775Z,1.83
2023-04-11T17:40:14.335Z,1.70
2023-04-11T17:42:44.003Z,1.42
2023-04-11T17:45:18.541Z,1.50
2023-04-11T17:47:49.731Z,1.33
2023-04-11T17:50:17.107Z,3.22
2023-04-11T17:52:46.120Z,3.83
2023-04-11T17:55:15.195Z,1.63
2023-04-11T17:57:42.576Z,1.42
2023-04-11T18:00:17.555Z,2.53
2023-04-11T18:02:48.119Z,9.73
2023-04-11T18:05:23.820Z,9.15
2023-04-11T18:07:53.037Z,8.07
2023-04-11T18:10:20.239Z,9.50
2023-04-11T18:12:49.110Z,7.22
2023-04-11T18:15:16.023Z,6.13
2023-04-11T18:17:43.848Z,3.92
2023-04-11T18:20:12.601Z,8.07
2023-04-11T18:22:41.140Z,3.97
2023-04-11T18:25:08.946Z,2.30
2023-04-11T18:27:37.175Z,1.98
2023-04-11T18:30:05.784Z,1.60
2023-04-11T18:32:37.778Z,1.50
2023-04-11T18:35:11.640Z,1.63
2023-04-11T18:37:42.964Z,1.63
2023-04-11T18:40:14.090Z,1.52
2023-04-11T18:42:43.706Z,1.92
2023-04-11T18:45:11.584Z,1.90
2023-04-11T18:47:40.034Z,2.00
2023-04-11T18:50:08.143Z,1.63
2023-04-11T18:52:35.103Z,1.90
2023-04-11T18:55:01.567Z,2.78
2023-04-11T18:57:31.933Z,3.45
2023-04-11T19:00:03.944Z,3.92
2023-04-11T19:02:31.337Z,4.18
2023-04-11T19:04:57.874Z,4.30
2023-04-11T19:07:24.329Z,4.07
2023-04-11T19:09:50.864Z,3.85
2023-04-11T19:12:19.001Z,3.85
2023-04-11T19:14:45.456Z,3.97
2023-04-11T19:17:15.246Z,3.08
2023-04-11T19:19:43.133Z,2.88
2023-04-11T19:22:09.842Z,3.30
2023-04-11T19:24:36.275Z,3.20
2023-04-11T19:27:02.914Z,3.20
2023-04-11T19:29:29.609Z,2.38
2023-04-11T19:31:55.996Z,2.30
2023-04-11T19:34:22.634Z,2.30
2023-04-11T19:36:49.034Z,2.10
2023-04-11T19:39:15.436Z,2.30
2023-04-11T19:41:46.092Z,2.10
2023-04-11T19:44:13.119Z,1.70
2023-04-11T19:46:39.950Z,2.17
2023-04-11T19:49:06.696Z,1.80
2023-04-11T19:51:33.090Z,2.20
2023-04-11T19:53:59.825Z,2.10
2023-04-11T19:56:26.916Z,2.28
2023-04-11T19:58:53.300Z,1.95
2023-04-11T20:01:20.106Z,1.85
2023-04-11T20:03:46.771Z,1.88
2023-04-11T20:06:13.572Z,1.55
2023-04-11T20:08:40.483Z,1.70
2023-04-11T20:11:06.881Z,1.85
2023-04-11T20:13:34.176Z,1.65
2023-04-11T20:16:04.506Z,1.50
2023-04-11T20:18:31.358Z,1.70
2023-04-11T20:20:58.034Z,1.73
2023-04-11T20:23:24.402Z,1.60
2023-04-11T20:25:50.971Z,2.28
2023-04-11T20:28:17.331Z,2.00
2023-04-11T20:30:43.797Z,1.75
2023-04-11T20:33:10.608Z,1.75
2023-04-11T20:35:37.114Z,1.67
2023-04-11T20:38:03.642Z,1.60
2023-04-11T20:40:30.011Z,1.55
2023-04-11T20:42:57.266Z,1.88
2023-04-11T20:45:25.578Z,1.73
2023-04-11T20:47:52.629Z,1.50
2023-04-11T20:50:19.768Z,2.50
2023-04-11T20:52:51.268Z,2.33
2023-04-11T20:55:17.997Z,2.60
2023-04-11T20:57:44.947Z,2.05
2023-04-11T21:00:17.371Z,1.70
2023-04-11T21:02:45.855Z,1.65
2023-04-11T21:05:13.647Z,2.05
2023-04-11T21:07:41.904Z,1.42
2023-04-11T21:10:09.802Z,1.70
2023-04-11T21:12:37.085Z,1.90
2023-04-11T21:15:04.212Z,1.42
2023-04-11T21:17:35.685Z,1.30
2023-04-11T21:20:10.036Z,1.45
2023-04-11T21:22:36.999Z,2.50
2023-04-11T21:25:04.201Z,1.80
2023-04-11T21:27:30.780Z,1.35
2023-04-11T21:29:57.167Z,1.90
2023-04-11T21:32:23.575Z,1.40
2023-04-11T21:34:50.218Z,1.80
2023-04-11T21:37:16.665Z,1.40
2023-04-11T21:39:43.546Z,1.52
2023-04-11T21:42:09.948Z,1.55
2023-04-11T21:44:37.390Z,1.88
2023-04-11T21:47:04.289Z,1.52
2023-04-11T21:49:31.317Z,1.67
2023-04-11T21:51:57.741Z,1.58
2023-04-11T21:54:24.156Z,1.48
2023-04-11T21:56:50.655Z,1.58
2023-04-11T21:59:17.124Z,1.60
2023-04-11T22:01:44.269Z,2.00
2023-04-11T22:04:11.234Z,2.45
2023-04-11T22:06:38.992Z,1.50
2023-04-11T22:09:05.465Z,1.50
2023-04-11T22:11:32.429Z,1.65
2023-04-11T22:14:01.300Z,1.95
2023-04-11T22:16:31.957Z,1.45
2023-04-11T22:18:58.859Z,1.70
2023-04-11T22:21:26.494Z,2.17
2023-04-11T22:23:56.381Z,2.13
2023-04-11T22:26:34.207Z,1.48
2023-04-11T22:29:05.412Z,1.55
2023-04-11T22:31:34.324Z,1.38
2023-04-11T22:34:04.012Z,1.70
2023-04-11T22:36:35.454Z,2.08
2023-04-11T22:39:04.845Z,1.83
2023-04-11T22:41:33.468Z,1.52
2023-04-11T22:44:00.818Z,1.40
2023-04-11T22:46:34.247Z,1.45
2023-04-11T22:49:00.665Z,1.67
2023-04-11T22:51:30.276Z,1.60
2023-04-11T22:53:57.420Z,1.85
2023-04-11T22:56:24.215Z,1.80
2023-04-11T22:58:50.604Z,1.50
2023-04-11T23:01:17.580Z,1.60
2023-04-11T23:03:44.059Z,1.70
2023-04-11T23:06:10.887Z,1.73
2023-04-11T23:08:37.628Z,1.73
2023-04-11T23:11:04.989Z,1.83
2023-04-11T23:13:31.497Z,1.67
2023-04-11T23:16:00.628Z,1.73
2023-04-11T23:18:27.080Z,1.77
2023-04-11T23:20:53.730Z,1.83
2023-04-11T23:23:20.626Z,1.60
2023-04-11T23:25:47.116Z,1.92
2023-04-11T23:28:13.534Z,1.70
2023-04-11T23:30:40.635Z,1.65
2023-04-11T23:33:08.868Z,1.88
2023-04-11T23:35:38.621Z,2.05
2023-04-11T23:38:05.873Z,1.92
2023-04-11T23:40:32.705Z,2.05
2023-04-11T23:42:59.098Z,1.80
2023-04-11T23:45:25.651Z,1.38
2023-04-11T23:47:52.737Z,1.80
2023-04-11T23:50:19.530Z,1.40
2023-04-11T23:52:46.832Z,1.17
2023-04-11T23:55:13.485Z,1.48
2023-04-11T23:57:40.200Z,2.28
